createdAt,value
2023-01-12T00:00:01.407Z,9.10
2023-01-12T00:02:29.625Z,9.07
2023-01-12T00:04:57.675Z,10.73
2023-01-12T00:07:25.624Z,8.63
2023-01-12T00:09:53.831Z,12.80
2023-01-12T00:12:21.912Z,9.00
2023-01-12T00:14:52.045Z,8.83
2023-01-12T00:17:20.168Z,8.20
2023-01-12T00:19:48.372Z,9.57
2023-01-12T00:22:18.522Z,8.13
2023-01-12T00:24:49.827Z,8.90
2023-01-12T00:27:20.340Z,10.27
2023-01-12T00:29:51.511Z,10.00
2023-01-12T00:32:22.070Z,10.90
2023-01-12T00:34:50.396Z,11.80
2023-01-12T00:37:20.709Z,8.90
2023-01-12T00:40:01.383Z,8.87
2023-01-12T00:42:47.883Z,7.87
2023-01-12T00:45:23.580Z,8.60
2023-01-12T00:47:54.663Z,7.97
2023-01-12T00:50:23.255Z,8.10
2023-01-12T00:52:51.419Z,8.67
2023-01-12T00:55:20.223Z,8.90
2023-01-12T00:57:48.780Z,9.50
2023-01-12T01:00:19.927Z,10.13
2023-01-12T01:02:48.290Z,8.67
2023-01-12T01:05:18.305Z,10.13
2023-01-12T01:07:48.120Z,10.63
2023-01-12T01:10:18.244Z,10.30
2023-01-12T01:12:47.365Z,11.40
2023-01-12T01:15:15.473Z,7.83
2023-01-12T01:17:45.068Z,9.03
2023-01-12T01:20:13.688Z,8.50
2023-01-12T01:22:41.792Z,7.53
2023-01-12T01:25:10.840Z,8.20
2023-01-12T01:27:39.477Z,9.53
2023-01-12T01:30:09.152Z,9.97
2023-01-12T01:32:37.229Z,8.37
2023-01-12T01:35:07.297Z,9.57
2023-01-12T01:37:35.647Z,7.90
2023-01-12T01:40:03.743Z,8.03
2023-01-12T01:42:32.528Z,7.40
2023-01-12T01:45:02.753Z,8.40
2023-01-12T01:47:37.628Z,7.63
2023-01-12T01:50:15.812Z,7.20
2023-01-12T01:52:49.878Z,8.40
2023-01-12T01:55:23.357Z,6.97
2023-01-12T01:57:56.179Z,6.93
2023-01-12T02:00:26.332Z,7.50
2023-01-12T02:02:56.013Z,6.57
2023-01-12T02:05:28.377Z,6.77
2023-01-12T02:08:00.181Z,7.70
2023-01-12T02:10:28.519Z,7.20
2023-01-12T02:13:14.192Z,8.20
2023-01-12T02:16:21.709Z,6.20
2023-01-12T02:19:14.692Z,6.20
2023-01-12T02:22:28.643Z,6.90
2023-01-12T02:25:21.246Z,5.87
2023-01-12T02:28:10.482Z,6.10
2023-01-12T02:31:16.542Z,5.27
2023-01-12T02:33:53.324Z,5.07
2023-01-12T02:36:31.954Z,5.83
2023-01-12T02:39:10.544Z,5.23
2023-01-12T02:42:02.686Z,6.67
2023-01-12T02:44:36.610Z,5.67
2023-01-12T02:47:15.440Z,5.27
2023-01-12T02:49:50.433Z,5.63
2023-01-12T02:52:23.246Z,7.03
2023-01-12T02:54:53.627Z,5.30
2023-01-12T02:57:25.016Z,7.97
2023-01-12T02:59:55.440Z,5.93
2023-01-12T03:02:27.886Z,6.67
2023-01-12T03:04:56.384Z,5.87
2023-01-12T03:07:42.579Z,6.03
2023-01-12T03:10:21.937Z,5.57
2023-01-12T03:12:52.305Z,7.27
2023-01-12T03:15:21.000Z,5.80
2023-01-12T03:17:59.433Z,5.83
2023-01-12T03:20:32.189Z,7.83
2023-01-12T03:23:07.586Z,7.10
2023-01-12T03:25:39.991Z,5.97
2023-01-12T03:28:09.808Z,6.93
2023-01-12T03:30:40.566Z,5.67
2023-01-12T03:33:10.954Z,6.40
2023-01-12T03:35:44.339Z,7.27
2023-01-12T03:38:20.840Z,6.30
2023-01-12T03:40:56.305Z,10.37
2023-01-12T03:43:32.132Z,6.60
2023-01-12T03:46:08.909Z,7.00
2023-01-12T03:48:44.007Z,8.97
2023-01-12T03:51:16.159Z,6.50
2023-01-12T03:53:46.722Z,8.63
2023-01-12T03:56:17.117Z,9.57
2023-01-12T03:58:46.142Z,13.27
2023-01-12T04:01:14.871Z,7.27
2023-01-12T04:03:45.215Z,7.20
2023-01-12T04:06:13.571Z,9.13
2023-01-12T04:08:42.084Z,7.80
2023-01-12T04:11:24.583Z,8.37
2023-01-12T04:13:53.103Z,6.30
2023-01-12T04:16:21.273Z,6.97
2023-01-12T04:18:52.263Z,6.60
2023-01-12T04:21:37.903Z,7.37
2023-01-12T04:24:06.426Z,7.07
2023-01-12T04:26:34.441Z,7.30
2023-01-12T04:29:02.567Z,6.73
2023-01-12T04:31:30.690Z,7.07
2023-01-12T04:34:00.315Z,6.50
2023-01-12T04:36:28.507Z,6.73
2023-01-12T04:38:56.508Z,5.57
2023-01-12T04:41:25.003Z,4.87
2023-01-12T04:43:53.685Z,5.80
2023-01-12T04:46:21.776Z,4.93
2023-01-12T04:48:49.749Z,9.50
2023-01-12T04:51:19.302Z,6.67
2023-01-12T04:53:48.237Z,5.93
2023-01-12T04:56:16.468Z,7.40
2023-01-12T04:58:44.732Z,8.23
2023-01-12T05:01:14.693Z,6.40
2023-01-12T05:03:44.167Z,6.30
2023-01-12T05:06:12.977Z,7.20
2023-01-12T05:08:59.797Z,5.67
2023-01-12T05:11:28.705Z,5.33
2023-01-12T05:13:57.638Z,7.37
2023-01-12T05:16:26.270Z,10.00
2023-01-12T05:18:54.526Z,7.90
2023-01-12T05:21:24.792Z,7.77
2023-01-12T05:23:54.382Z,6.17
2023-01-12T05:26:22.635Z,7.53
2023-01-12T05:28:51.192Z,7.13
2023-01-12T05:31:20.175Z,8.57
2023-01-12T05:33:49.339Z,7.50
2023-01-12T05:36:18.416Z,9.53
2023-01-12T05:38:47.234Z,9.27
2023-01-12T05:41:16.708Z,8.77
2023-01-12T05:43:53.275Z,8.03
2023-01-12T05:46:23.352Z,10.83
2023-01-12T05:48:54.126Z,9.50
2023-01-12T05:51:23.559Z,10.27
2023-01-12T05:53:51.966Z,8.67
2023-01-12T05:56:25.958Z,10.17
2023-01-12T05:58:55.156Z,10.23
2023-01-12T06:01:25.467Z,9.53
2023-01-12T06:03:55.577Z,10.47
2023-01-12T06:06:25.986Z,10.43
2023-01-12T06:08:55.117Z,9.53
2023-01-12T06:11:42.375Z,9.30
2023-01-12T06:14:11.464Z,9.50
2023-01-12T06:16:42.251Z,11.00
2023-01-12T06:19:13.110Z,10.23
2023-01-12T06:21:42.143Z,7.80
2023-01-12T06:24:10.598Z,9.60
2023-01-12T06:26:42.783Z,10.07
2023-01-12T06:29:11.711Z,9.43
2023-01-12T06:31:39.966Z,8.77
2023-01-12T06:34:09.028Z,9.57
2023-01-12T06:36:37.047Z,7.40
2023-01-12T06:39:06.069Z,10.50
2023-01-12T06:41:53.113Z,11.90
2023-01-12T06:44:24.744Z,9.37
2023-01-12T06:46:53.852Z,9.13
2023-01-12T06:49:21.874Z,10.03
2023-01-12T06:51:51.592Z,9.53
2023-01-12T06:54:19.889Z,9.43
2023-01-12T06:56:48.312Z,10.53
2023-01-12T06:59:16.502Z,7.93
2023-01-12T07:01:46.121Z,7.23
2023-01-12T07:04:14.283Z,8.20
2023-01-12T07:06:42.386Z,6.60
2023-01-12T07:09:10.532Z,8.40
2023-01-12T07:11:38.602Z,9.30
2023-01-12T07:14:09.065Z,7.30
2023-01-12T07:16:37.500Z,8.27
2023-01-12T07:19:07.025Z,8.53
2023-01-12T07:21:35.166Z,8.73
2023-01-12T07:24:03.586Z,6.90
2023-01-12T07:26:31.868Z,6.70
2023-01-12T07:29:00.193Z,9.17
2023-01-12T07:31:29.290Z,7.63
2023-01-12T07:33:57.365Z,11.17
2023-01-12T07:36:26.982Z,9.60
2023-01-12T07:38:55.174Z,10.03
2023-01-12T07:41:40.982Z,12.00
2023-01-12T07:44:09.111Z,12.27
2023-01-12T07:46:37.293Z,9.77
2023-01-12T07:49:05.487Z,13.63
2023-01-12T07:51:34.963Z,11.00
2023-01-12T07:54:03.222Z,10.03
2023-01-12T07:56:31.353Z,7.43
2023-01-12T07:58:59.453Z,10.53
2023-01-12T08:01:27.656Z,11.63
2023-01-12T08:03:56.298Z,11.40
2023-01-12T08:06:24.920Z,7.13
2023-01-12T08:08:55.592Z,9.90
2023-01-12T08:11:24.256Z,9.30
2023-01-12T08:13:55.418Z,11.47
2023-01-12T08:16:28.701Z,10.70
2023-01-12T08:19:02.099Z,9.63
2023-01-12T08:21:35.453Z,10.30
2023-01-12T08:24:10.637Z,9.90
2023-01-12T08:26:44.752Z,8.80
2023-01-12T08:29:17.960Z,7.37
2023-01-12T08:31:46.102Z,8.13
2023-01-12T08:34:14.449Z,7.70
2023-01-12T08:36:44.695Z,10.40
2023-01-12T08:39:14.347Z,12.50
2023-01-12T08:41:42.733Z,12.97
2023-01-12T08:44:11.660Z,9.50
2023-01-12T08:46:41.560Z,8.57
2023-01-12T08:49:16.950Z,10.37
2023-01-12T08:51:47.093Z,9.17
2023-01-12T08:54:18.876Z,6.93
2023-01-12T08:56:47.554Z,7.60
2023-01-12T08:59:16.455Z,10.10
2023-01-12T09:01:45.658Z,8.97
2023-01-12T09:04:14.115Z,11.60
2023-01-12T09:06:45.263Z,11.97
2023-01-12T09:09:15.717Z,8.70
2023-01-12T09:11:46.328Z,8.30
2023-01-12T09:14:15.806Z,8.43
2023-01-12T09:16:44.838Z,9.93
2023-01-12T09:19:13.892Z,6.47
2023-01-12T09:21:43.700Z,8.97
2023-01-12T09:24:14.854Z,9.93
2023-01-12T09:26:46.068Z,17.00
2023-01-12T09:29:15.545Z,7.23
2023-01-12T09:31:45.984Z,6.80
2023-01-12T09:34:14.480Z,12.03
2023-01-12T09:36:43.025Z,5.30
2023-01-12T09:39:32.530Z,14.00
2023-01-12T09:42:19.763Z,8.63
2023-01-12T09:45:08.638Z,9.23
2023-01-12T09:47:40.537Z,8.97
2023-01-12T09:50:12.930Z,6.43
2023-01-12T09:52:46.482Z,6.03
2023-01-12T09:55:19.022Z,7.57
2023-01-12T09:58:03.658Z,8.63
2023-01-12T10:00:32.521Z,6.63
2023-01-12T10:03:11.907Z,10.70
2023-01-12T10:05:46.716Z,10.50
2023-01-12T10:08:19.528Z,5.77
2023-01-12T10:11:02.431Z,6.67
2023-01-12T10:13:58.179Z,6.00
2023-01-12T10:16:35.166Z,6.80
2023-01-12T10:19:09.416Z,10.07
2023-01-12T10:21:37.911Z,7.60
2023-01-12T10:24:12.958Z,9.50
2023-01-12T10:26:44.631Z,7.53
2023-01-12T10:29:14.272Z,5.80
2023-01-12T10:31:42.764Z,6.37
2023-01-12T10:34:13.177Z,7.07
2023-01-12T10:36:45.618Z,5.60
2023-01-12T10:39:34.609Z,8.93
2023-01-12T10:42:43.972Z,6.70
2023-01-12T10:45:18.841Z,9.87
2023-01-12T10:47:48.021Z,8.30
2023-01-12T10:50:24.863Z,8.27
2023-01-12T10:52:57.289Z,5.47
2023-01-12T10:55:30.399Z,5.80
2023-01-12T10:57:59.056Z,6.80
2023-01-12T11:00:30.597Z,7.23
2023-01-12T11:02:59.093Z,7.83
2023-01-12T11:05:31.398Z,6.27
2023-01-12T11:08:00.112Z,6.47
2023-01-12T11:10:30.660Z,8.47
2023-01-12T11:13:00.648Z,11.80
2023-01-12T11:15:34.045Z,5.13
2023-01-12T11:18:33.439Z,6.97
2023-01-12T11:21:05.568Z,8.03
2023-01-12T11:23:40.352Z,7.53
2023-01-12T11:26:18.603Z,7.43
2023-01-12T11:28:50.082Z,8.73
2023-01-12T11:31:23.861Z,8.07
2023-01-12T11:33:57.246Z,7.43
2023-01-12T11:36:30.320Z,7.70
2023-01-12T11:39:04.636Z,7.63
2023-01-12T11:41:39.495Z,7.30
2023-01-12T11:44:16.774Z,9.50
2023-01-12T11:46:50.733Z,6.13
2023-01-12T11:49:24.578Z,9.17
2023-01-12T11:51:57.037Z,7.63
2023-01-12T11:54:27.260Z,9.77
2023-01-12T11:57:23.544Z,13.57
2023-01-12T12:00:04.747Z,8.23
2023-01-12T12:02:38.238Z,6.20
2023-01-12T12:05:21.633Z,6.67
2023-01-12T12:08:06.482Z,7.60
2023-01-12T12:10:45.092Z,9.90
2023-01-12T12:13:28.130Z,8.23
2023-01-12T12:16:11.309Z,8.63
2023-01-12T12:18:58.762Z,7.17
2023-01-12T12:21:42.915Z,11.13
2023-01-12T12:24:27.059Z,8.33
2023-01-12T12:27:04.789Z,8.93
2023-01-12T12:29:55.334Z,9.20
2023-01-12T12:32:33.319Z,8.63
2023-01-12T12:35:29.099Z,12.77
2023-01-12T12:38:10.421Z,6.33
2023-01-12T12:41:09.832Z,9.77
2023-01-12T12:43:56.267Z,7.67
2023-01-12T12:46:34.402Z,7.37
2023-01-12T12:49:06.824Z,6.27
2023-01-12T12:51:37.707Z,8.53
2023-01-12T12:54:08.743Z,7.47
2023-01-12T12:56:38.959Z,9.90
2023-01-12T12:59:07.343Z,11.57
2023-01-12T13:01:42.962Z,7.30
2023-01-12T13:04:15.211Z,9.43
2023-01-12T13:06:48.208Z,16.83
2023-01-12T13:09:38.260Z,6.77
2023-01-12T13:12:33.538Z,7.83
2023-01-12T13:15:21.373Z,7.60
2023-01-12T13:17:51.046Z,7.77
2023-01-12T13:21:05.678Z,7.83
2023-01-12T13:23:50.705Z,5.67
2023-01-12T13:26:27.329Z,6.13
2023-01-12T13:29:32.638Z,6.37
2023-01-12T13:32:21.620Z,7.07
2023-01-12T13:34:51.189Z,7.47
2023-01-12T13:37:29.088Z,6.50
2023-01-12T13:40:05.417Z,8.47
2023-01-12T13:42:52.523Z,9.70
2023-01-12T13:45:23.349Z,7.73
2023-01-12T13:47:54.193Z,8.77
2023-01-12T13:50:25.976Z,9.43
2023-01-12T13:52:59.035Z,8.67
2023-01-12T13:55:29.535Z,9.93
2023-01-12T13:58:00.348Z,11.27
2023-01-12T14:00:29.752Z,8.00
2023-01-12T14:02:58.590Z,9.07
2023-01-12T14:05:54.648Z,9.97
2023-01-12T14:08:51.676Z,12.07
2023-01-12T14:11:41.429Z,11.13
2023-01-12T14:14:45.651Z,15.30
2023-01-12T14:17:36.299Z,14.50
2023-01-12T14:20:04.633Z,14.00
2023-01-12T14:22:34.177Z,11.07
2023-01-12T14:25:16.318Z,11.90
2023-01-12T14:27:57.059Z,12.40
2023-01-12T14:30:27.086Z,13.63
2023-01-12T14:32:56.074Z,22.00
2023-01-12T14:35:25.881Z,21.60
2023-01-12T14:37:58.484Z,14.47
2023-01-12T14:40:30.614Z,16.30
2023-01-12T14:43:16.236Z,19.57
2023-01-12T15:00:00.034Z,18.27
2023-01-12T15:02:34.250Z,14.13
2023-01-12T15:05:05.928Z,12.67
2023-01-12T15:07:36.834Z,17.63
2023-01-12T15:10:21.371Z,12.60
2023-01-12T15:12:53.851Z,14.27
2023-01-12T15:15:25.940Z,10.43
2023-01-12T15:18:12.978Z,16.63
2023-01-12T15:21:02.146Z,11.80
2023-01-12T15:23:50.620Z,13.27
2023-01-12T15:26:19.021Z,10.80
2023-01-12T15:28:47.392Z,14.17
2023-01-12T15:31:25.126Z,16.53
2023-01-12T15:33:53.690Z,17.30
2023-01-12T15:36:22.511Z,19.23
2023-01-12T15:38:51.047Z,21.53
2023-01-12T15:41:44.087Z,21.00
2023-01-12T15:44:14.214Z,18.83
2023-01-12T15:46:44.300Z,21.30
2023-01-12T15:49:14.457Z,31.93
2023-01-12T15:51:43.975Z,26.57
2023-01-12T15:54:13.985Z,17.37
2023-01-12T15:56:42.763Z,21.07
2023-01-12T15:59:10.964Z,15.60
2023-01-12T16:01:42.794Z,19.57
2023-01-12T16:04:41.379Z,21.37
2023-01-12T16:07:05.483Z,20.03
2023-01-12T16:09:33.770Z,19.37
2023-01-12T16:12:02.076Z,23.23
2023-01-12T16:14:30.220Z,24.70
2023-01-12T16:16:58.738Z,19.17
2023-01-12T16:19:28.369Z,16.43
2023-01-12T16:21:56.708Z,15.10
2023-01-12T16:24:27.098Z,16.83
2023-01-12T16:26:55.379Z,16.60
2023-01-12T16:29:24.318Z,16.53
2023-01-12T16:31:52.576Z,14.70
2023-01-12T16:34:23.640Z,11.03
2023-01-12T16:36:53.338Z,16.63
2023-01-12T16:39:21.456Z,17.43
2023-01-12T16:41:49.985Z,17.67
2023-01-12T16:44:18.110Z,26.33
2023-01-12T16:46:48.694Z,15.40
2023-01-12T16:49:16.708Z,14.73
2023-01-12T16:51:44.728Z,16.50
2023-01-12T16:54:14.395Z,16.10
2023-01-12T16:56:42.669Z,15.73
2023-01-12T16:59:10.731Z,12.30
2023-01-12T17:01:39.090Z,14.20
2023-01-12T17:04:07.468Z,15.70
2023-01-12T17:06:35.735Z,20.07
2023-01-12T17:09:05.152Z,17.27
2023-01-12T17:11:35.583Z,15.13
2023-01-12T17:14:23.021Z,13.83
2023-01-12T17:16:52.686Z,14.47
2023-01-12T17:19:21.673Z,17.13
2023-01-12T17:21:50.930Z,12.97
2023-01-12T17:24:20.267Z,17.83
2023-01-12T17:26:53.215Z,16.33
2023-01-12T17:29:21.944Z,15.87
2023-01-12T17:31:50.265Z,12.37
2023-01-12T17:34:18.784Z,15.20
2023-01-12T17:36:46.958Z,14.67
2023-01-12T17:39:15.814Z,10.90
2023-01-12T17:42:01.353Z,12.23
2023-01-12T17:44:31.766Z,10.70
2023-01-12T17:47:00.097Z,12.27
2023-01-12T17:49:28.491Z,12.03
2023-01-12T17:51:56.736Z,12.10
2023-01-12T17:54:25.728Z,13.33
2023-01-12T17:56:54.754Z,19.83
2023-01-12T17:59:24.344Z,11.83
2023-01-12T18:01:55.372Z,13.77
2023-01-12T18:04:23.603Z,13.13
2023-01-12T18:06:51.734Z,8.80
2023-01-12T18:09:20.179Z,13.27
2023-01-12T18:11:48.303Z,16.50
2023-01-12T18:14:16.685Z,12.43
2023-01-12T18:16:44.780Z,15.67
2023-01-12T18:19:15.071Z,13.87
2023-01-12T18:21:43.140Z,15.73
2023-01-12T18:24:11.268Z,22.07
2023-01-12T18:26:39.398Z,12.70
2023-01-12T18:29:07.871Z,12.80
2023-01-12T18:31:37.735Z,14.20
2023-01-12T18:34:07.857Z,12.10
2023-01-12T18:36:40.235Z,16.57
2023-01-12T18:39:09.684Z,15.17
2023-01-12T18:41:55.704Z,10.20
2023-01-12T18:44:23.936Z,13.60
2023-01-12T18:47:09.403Z,9.33
2023-01-12T18:49:38.886Z,13.47
2023-01-12T18:52:30.195Z,13.60
2023-01-12T18:54:59.030Z,9.83
2023-01-12T18:57:28.617Z,13.87
2023-01-12T19:00:00.288Z,9.37
2023-01-12T19:02:29.987Z,12.57
2023-01-12T19:05:12.070Z,10.87
2023-01-12T19:08:02.321Z,10.07
2023-01-12T19:10:31.140Z,10.17
2023-01-12T19:13:13.569Z,11.57
2023-01-12T19:16:00.118Z,11.37
2023-01-12T19:18:28.982Z,16.57
2023-01-12T19:21:22.550Z,13.57
2023-01-12T19:24:09.438Z,15.37
2023-01-12T19:26:54.207Z,14.40
2023-01-12T19:29:22.639Z,10.30
2023-01-12T19:31:50.867Z,13.97
2023-01-12T19:34:19.261Z,12.33
2023-01-12T19:36:47.518Z,12.53
2023-01-12T19:39:25.505Z,13.43
2023-01-12T19:42:10.985Z,15.20
2023-01-12T19:44:39.392Z,11.83
2023-01-12T19:47:07.615Z,18.43
2023-01-12T19:49:35.787Z,15.33
2023-01-12T19:52:04.016Z,14.17
2023-01-12T19:54:33.627Z,12.93
2023-01-12T19:57:01.747Z,20.37
2023-01-12T19:59:30.024Z,11.63
2023-01-12T20:01:58.454Z,13.10
2023-01-12T20:04:26.632Z,15.40
2023-01-12T20:06:56.370Z,13.17
2023-01-12T20:09:24.747Z,12.67
2023-01-12T20:11:55.215Z,11.97
2023-01-12T20:14:23.498Z,12.93
2023-01-12T20:16:51.680Z,12.97
2023-01-12T20:19:20.660Z,13.03
2023-01-12T20:21:48.800Z,12.17
2023-01-12T20:24:17.562Z,13.53
2023-01-12T20:26:46.051Z,13.57
2023-01-12T20:29:15.759Z,13.60
2023-01-12T20:31:44.445Z,12.53
2023-01-12T20:34:13.165Z,12.53
2023-01-12T20:36:41.611Z,11.50
2023-01-12T20:39:13.153Z,12.17
2023-01-12T20:41:42.074Z,14.53
2023-01-12T20:44:16.530Z,14.77
2023-01-12T20:46:44.866Z,11.63
2023-01-12T20:49:13.568Z,11.77
2023-01-12T20:51:41.817Z,13.40
2023-01-12T20:54:10.946Z,12.00
2023-01-12T20:56:39.080Z,11.33
2023-01-12T20:59:07.765Z,10.93
2023-01-12T21:01:37.583Z,11.53
2023-01-12T21:04:05.813Z,14.17
2023-01-12T21:06:34.263Z,11.27
2023-01-12T21:09:02.344Z,10.40
2023-01-12T21:11:30.502Z,11.27
2023-01-12T21:13:59.364Z,10.03
2023-01-12T21:16:27.909Z,9.63
2023-01-12T21:18:57.560Z,11.03
2023-01-12T21:21:26.032Z,9.23
2023-01-12T21:23:54.241Z,10.50
2023-01-12T21:26:22.382Z,10.57
2023-01-12T21:28:50.708Z,11.97
2023-01-12T21:31:18.882Z,9.20
2023-01-12T21:33:47.104Z,10.83
2023-01-12T21:36:18.261Z,9.80
2023-01-12T21:38:50.847Z,10.93
2023-01-12T21:41:19.070Z,9.37
2023-01-12T21:43:49.481Z,14.50
2023-01-12T21:46:18.645Z,12.70
2023-01-12T21:48:47.018Z,9.67
2023-01-12T21:51:18.163Z,12.30
2023-01-12T21:53:46.351Z,11.43
2023-01-12T21:56:14.784Z,12.37
2023-01-12T21:58:42.865Z,8.63
2023-01-12T22:01:12.707Z,11.77
2023-01-12T22:03:41.370Z,7.70
2023-01-12T22:06:12.485Z,8.93
2023-01-12T22:08:43.206Z,11.47
2023-01-12T22:11:12.836Z,10.57
2023-01-12T22:13:41.275Z,8.03
2023-01-12T22:16:11.796Z,8.23
2023-01-12T22:18:41.092Z,9.13
2023-01-12T22:21:10.775Z,7.03
2023-01-12T22:23:39.605Z,9.97
2023-01-12T22:26:10.856Z,9.00
2023-01-12T22:28:41.661Z,10.17
2023-01-12T22:31:11.485Z,11.20
2023-01-12T22:33:40.100Z,9.50
2023-01-12T22:36:08.839Z,9.23
2023-01-12T22:38:36.835Z,9.87
2023-01-12T22:41:06.093Z,8.47
2023-01-12T22:43:40.687Z,9.47
2023-01-12T22:46:15.732Z,8.87
2023-01-12T22:48:44.167Z,10.90
2023-01-12T22:51:12.432Z,11.53
2023-01-12T22:53:40.537Z,9.47
2023-01-12T22:56:09.334Z,7.17
2023-01-12T22:58:38.913Z,8.20
2023-01-12T23:01:08.796Z,7.93
2023-01-12T23:03:37.940Z,9.40
2023-01-12T23:06:07.466Z,7.30
2023-01-12T23:08:35.513Z,7.53
2023-01-12T23:11:05.109Z,7.53
2023-01-12T23:13:33.286Z,7.17
2023-01-12T23:16:06.646Z,9.97
2023-01-12T23:18:36.887Z,6.27
2023-01-12T23:21:11.001Z,6.50
2023-01-12T23:23:39.609Z,6.93
2023-01-12T23:26:10.101Z,10.37
2023-01-12T23:28:41.571Z,6.90
2023-01-12T23:31:13.159Z,8.90
2023-01-12T23:33:43.148Z,6.10
2023-01-12T23:36:13.630Z,6.60
2023-01-12T23:38:42.082Z,7.60
2023-01-12T23:41:15.531Z,5.67
2023-01-12T23:43:44.214Z,5.37
2023-01-12T23:46:14.168Z,7.00
2023-01-12T23:48:42.437Z,6.73
2023-01-12T23:51:10.944Z,7.97
2023-01-12T23:53:39.061Z,6.33
2023-01-12T23:56:09.540Z,9.47
2023-01-12T23:58:38.182Z,10.60
